Time,TemperatureF,DewpointF,PressureIn,WindDirection,WindDirectionDegrees,WindSpeedMPH,WindSpeedGustMPH,Humidity,HourlyPrecipIn,Conditions,Clouds,dailyrainin,SolarRadiationWatts/m^2,SoftwareType,DateUTC
2013-02-21 00:00:00,32.0,15.0,-100.00,ENE,67,5.0,-999.0,49,-99.99,,,0.00,0.000000,,2013-02-21 05:00:00,
2013-02-21 00:03:00,32.0,14.0,-100.00,ENE,57,7.0,-999.0,46,-99.99,,,0.00,0.000000,,2013-02-21 05:03:00,
2013-02-21 00:12:00,32.0,14.0,-100.00,ENE,57,6.0,-999.0,47,-99.99,,,0.00,0.000000,,2013-02-21 05:12:00,
2013-02-21 00:22:00,32.0,14.0,-100.00,NE,55,7.0,-999.0,47,-99.99,,,0.00,0.000000,,2013-02-21 05:22:00,
2013-02-21 00:36:00,32.0,15.0,-100.00,ENE,67,5.0,-999.0,49,-99.99,,,0.00,0.000000,,2013-02-21 05:36:00,
2013-02-21 00:46:00,32.0,15.0,-100.00,ENE,67,5.0,-999.0,49,-99.99,,,0.00,0.000000,,2013-02-21 05:46:00,
2013-02-21 01:11:00,31.0,15.0,-100.00,NE,43,6.0,-999.0,49,-99.99,,,0.00,0.000000,,2013-02-21 06:11:00,
2013-02-21 01:21:00,31.0,15.0,-100.00,NE,36,4.0,-999.0,49,-99.99,,,0.00,0.000000,,2013-02-21 06:21:00,
2013-02-21 01:31:00,32.0,15.0,-100.00,NE,38,4.0,-999.0,48,-99.99,,,0.00,0.000000,,2013-02-21 06:31:00,
2013-02-21 01:41:00,32.0,15.0,-100.00,NE,38,4.0,-999.0,48,-99.99,,,0.00,0.000000,,2013-02-21 06:41:00,
2013-02-21 01:52:00,32.0,15.0,-100.00,NE,43,4.0,-999.0,49,-99.99,,,0.00,0.000000,,2013-02-21 06:52:00,
2013-02-21 02:01:00,32.0,15.0,-100.00,NE,43,4.0,-999.0,49,-99.99,,,0.00,0.000000,,2013-02-21 07:01:00,
2013-02-21 02:11:00,31.0,15.0,-100.00,NE,46,5.0,-999.0,50,-99.99,,,0.00,0.000000,,2013-02-21 07:11:00,
2013-02-21 02:21:00,31.0,15.0,-100.00,NE,42,5.0,-999.0,50,-99.99,,,0.00,0.000000,,2013-02-21 07:21:00,
2013-02-21 02:32:00,31.0,15.0,-100.00,NE,42,5.0,-999.0,50,-99.99,,,0.00,0.000000,,2013-02-21 07:32:00,
2013-02-21 02:42:00,31.0,15.0,-100.00,NE,52,4.0,-999.0,51,-99.99,,,0.00,0.000000,,2013-02-21 07:42:00,
2013-02-21 02:52:00,31.0,15.0,-100.00,NE,48,5.0,-999.0,51,-99.99,,,0.00,0.000000,,2013-02-21 07:52:00,
2013-02-21 03:02:00,31.0,15.0,-100.00,NE,48,5.0,-999.0,51,-99.99,,,0.00,0.000000,,2013-02-21 08:02:00,
2013-02-21 03:11:00,31.0,15.0,-100.00,NE,54,5.0,-999.0,52,-99.99,,,0.00,0.000000,,2013-02-21 08:11:00,
2013-02-21 03:21:00,30.0,16.0,-100.00,NE,53,5.0,-999.0,53,-99.99,,,0.00,0.000000,,2013-02-21 08:21:00,
2013-02-21 03:32:00,30.0,16.0,-100.00,NE,53,5.0,-999.0,53,-99.99,,,0.00,0.000000,,2013-02-21 08:32:00,
2013-02-21 03:42:00,30.0,16.0,-100.00,ENE,57,5.0,-999.0,55,-99.99,,,0.00,0.000000,,2013-02-21 08:42:00,
2013-02-21 03:52:00,30.0,16.0,-100.00,NE,55,6.0,-999.0,55,-99.99,,,0.00,0.000000,,2013-02-21 08:52:00,
2013-02-21 04:02:00,30.0,16.0,-100.00,NE,55,6.0,-999.0,55,-99.99,,,0.00,0.000000,,2013-02-21 09:02:00,
2013-02-21 04:11:00,30.0,16.0,-100.00,ENE,62,6.0,-999.0,56,-99.99,,,0.00,0.000000,,2013-02-21 09:11:00,
2013-02-21 04:22:00,30.0,16.0,-100.00,ENE,59,5.0,-999.0,56,-99.99,,,0.00,0.000000,,2013-02-21 09:22:00,
2013-02-21 04:32:00,30.0,16.0,-100.00,ENE,59,5.0,-999.0,56,-99.99,,,0.00,0.000000,,2013-02-21 09:32:00,
2013-02-21 04:42:00,30.0,16.0,-100.00,NE,53,6.0,-999.0,56,-99.99,,,0.00,0.000000,,2013-02-21 09:42:00,
2013-02-21 04:52:00,30.0,16.0,-100.00,NE,50,6.0,-999.0,56,-99.99,,,0.00,0.000000,,2013-02-21 09:52:00,
2013-02-21 05:01:00,30.0,16.0,-100.00,NE,50,6.0,-999.0,56,-99.99,,,0.00,0.000000,,2013-02-21 10:01:00,
2013-02-21 05:11:00,30.0,16.0,-100.00,NE,52,5.0,-999.0,56,-99.99,,,0.00,0.000000,,2013-02-21 10:11:00,
2013-02-21 05:21:00,30.0,16.0,-100.00,NE,55,7.0,-999.0,56,-99.99,,,0.00,0.000000,,2013-02-21 10:21:00,
2013-02-21 05:31:00,30.0,16.0,-100.00,NE,55,7.0,-999.0,55,-99.99,,,0.00,0.000000,,2013-02-21 10:31:00,
2013-02-21 05:41:00,30.0,16.0,-100.00,NE,55,7.0,-999.0,55,-99.99,,,0.00,0.000000,,2013-02-21 10:41:00,
2013-02-21 05:51:00,30.0,16.0,-100.00,NE,56,8.0,-999.0,55,-99.99,,,0.00,0.000000,,2013-02-21 10:51:00,
2013-02-21 06:01:00,30.0,16.0,-100.00,NE,56,8.0,-999.0,55,-99.99,,,0.00,0.000000,,2013-02-21 11:01:00,
2013-02-21 06:11:00,30.0,16.0,-100.00,ENE,63,6.0,-999.0,56,-99.99,,,0.00,0.000000,,2013-02-21 11:11:00,
2013-02-21 06:21:00,30.0,17.0,-100.00,East,80,5.0,-999.0,58,-99.99,,,0.00,0.000000,,2013-02-21 11:21:00,
2013-02-21 06:31:00,30.0,17.0,-100.00,East,80,5.0,-999.0,58,-99.99,,,0.00,0.000000,,2013-02-21 11:31:00,
2013-02-21 06:41:00,29.0,17.0,-100.00,ENE,61,5.0,-999.0,58,-99.99,,,0.00,0.000000,,2013-02-21 11:41:00,
2013-02-21 06:52:00,29.0,17.0,-100.00,NE,55,6.0,-999.0,59,-99.99,,,0.00,0.000000,,2013-02-21 11:52:00,
2013-02-21 07:01:00,29.0,17.0,-100.00,NE,55,6.0,-999.0,59,-99.99,,,0.00,0.000000,,2013-02-21 12:01:00,
2013-02-21 07:11:00,29.0,17.0,-100.00,NE,48,6.0,-999.0,58,-99.99,,,0.00,0.000000,,2013-02-21 12:11:00,
2013-02-21 07:22:00,29.0,17.0,-100.00,NE,48,6.0,-999.0,58,-99.99,,,0.00,0.000000,,2013-02-21 12:22:00,
2013-02-21 07:32:00,29.0,17.0,-100.00,NE,48,6.0,-999.0,58,-99.99,,,0.00,0.000000,,2013-02-21 12:32:00,
2013-02-21 07:43:00,29.0,17.0,-100.00,NE,50,7.0,-999.0,58,-99.99,,,0.00,0.000000,,2013-02-21 12:43:00,
2013-02-21 07:53:00,30.0,17.0,-100.00,NE,55,7.0,-999.0,58,-99.99,,,0.00,0.000000,,2013-02-21 12:53:00,
2013-02-21 08:02:00,30.0,17.0,-100.00,NE,55,7.0,-999.0,58,-99.99,,,0.00,0.000000,,2013-02-21 13:02:00,
2013-02-21 08:12:00,30.0,17.0,-100.00,NE,53,7.0,-999.0,57,-99.99,,,0.00,6.980000,,2013-02-21 13:12:00,
2013-02-21 08:22:00,30.0,16.0,-100.00,NE,49,6.0,-999.0,57,-99.99,,,0.00,20.930000,,2013-02-21 13:22:00,
2013-02-21 08:32:00,30.0,16.0,-100.00,NE,49,6.0,-999.0,57,-99.99,,,0.00,20.930000,,2013-02-21 13:32:00,
2013-02-21 08:42:00,30.0,16.0,-100.00,NE,49,6.0,-999.0,57,-99.99,,,0.00,20.930000,,2013-02-21 13:42:00,
2013-02-21 08:52:00,31.0,15.0,-100.00,NE,56,9.0,-999.0,51,-99.99,,,0.00,118.629997,,2013-02-21 13:52:00,
2013-02-21 09:02:00,31.0,15.0,-100.00,NE,56,9.0,-999.0,51,-99.99,,,0.00,118.629997,,2013-02-21 14:02:00,
2013-02-21 09:11:00,31.0,15.0,-100.00,NE,52,12.0,-999.0,49,-99.99,,,0.00,181.429993,,2013-02-21 14:11:00,
2013-02-21 09:22:00,32.0,15.0,-100.00,NE,51,9.0,-999.0,48,-99.99,,,0.00,237.250000,,2013-02-21 14:22:00,
2013-02-21 09:32:00,32.0,15.0,-100.00,NE,51,9.0,-999.0,48,-99.99,,,0.00,237.250000,,2013-02-21 14:32:00,
2013-02-21 09:42:00,33.0,15.0,-100.00,NE,54,9.0,-999.0,46,-99.99,,,0.00,279.119995,,2013-02-21 14:42:00,
2013-02-21 09:52:00,33.0,14.0,-100.00,NE,44,10.0,-999.0,45,-99.99,,,0.00,341.920013,,2013-02-21 14:52:00,
2013-02-21 10:02:00,33.0,14.0,-100.00,NE,44,10.0,-999.0,45,-99.99,,,0.00,341.920013,,2013-02-21 15:02:00,
2013-02-21 10:12:00,34.0,15.0,-100.00,NE,51,9.0,-999.0,43,-99.99,,,0.00,439.609985,,2013-02-21 15:12:00,
2013-02-21 10:22:00,35.0,15.0,-100.00,ENE,68,9.0,-999.0,44,-99.99,,,0.00,432.640015,,2013-02-21 15:22:00,
2013-02-21 10:32:00,35.0,15.0,-100.00,ENE,68,9.0,-999.0,44,-99.99,,,0.00,432.640015,,2013-02-21 15:32:00,
2013-02-21 10:42:00,35.0,16.0,-100.00,ENE,60,9.0,-999.0,44,-99.99,,,0.00,460.549988,,2013-02-21 15:42:00,
2013-02-21 10:52:00,36.0,16.0,-100.00,ENE,65,10.0,-999.0,44,-99.99,,,0.00,502.420013,,2013-02-21 15:52:00,
2013-02-21 11:00:00,39.0,16.0,-100.00,NE,53,9.0,-999.0,38,-99.99,,,0.00,607.090027,,2013-02-21 16:00:00,
2013-02-21 11:02:00,36.0,16.0,-100.00,ENE,65,10.0,-999.0,44,-99.99,,,0.00,502.420013,,2013-02-21 16:02:00,
2013-02-21 11:12:00,36.0,16.0,-100.00,ENE,62,10.0,-999.0,43,-99.99,,,0.00,544.280029,,2013-02-21 16:12:00,
2013-02-21 11:22:00,38.0,16.0,-100.00,ENE,58,10.0,-999.0,41,-99.99,,,0.00,579.169983,,2013-02-21 16:22:00,
2013-02-21 11:32:00,38.0,16.0,-100.00,ENE,58,10.0,-999.0,41,-99.99,,,0.00,579.169983,,2013-02-21 16:32:00,
2013-02-21 11:42:00,39.0,16.0,-100.00,NE,53,9.0,-999.0,38,-99.99,,,0.00,607.090027,,2013-02-21 16:42:00,
2013-02-21 11:52:00,39.0,16.0,-100.00,NE,53,9.0,-999.0,38,-99.99,,,0.00,607.090027,,2013-02-21 16:52:00,
2013-02-21 12:42:00,42.0,15.0,-100.00,ENE,61,8.0,-999.0,32,-99.99,,,0.00,697.799988,,2013-02-21 17:42:00,
2013-02-21 12:52:00,44.0,15.0,-100.00,ENE,58,7.0,-999.0,30,-99.99,,,0.00,711.760010,,2013-02-21 17:52:00,
2013-02-21 13:02:00,44.0,15.0,-100.00,ENE,58,7.0,-999.0,30,-99.99,,,0.00,711.760010,,2013-02-21 18:02:00,
2013-02-21 13:12:00,44.0,15.0,-100.00,NE,53,7.0,-999.0,30,-99.99,,,0.00,718.729980,,2013-02-21 18:12:00,
2013-02-21 13:22:00,45.0,16.0,-100.00,NE,47,9.0,-999.0,30,-99.99,,,0.00,711.760010,,2013-02-21 18:22:00,
2013-02-21 13:32:00,45.0,16.0,-100.00,NE,47,9.0,-999.0,30,-99.99,,,0.00,711.760010,,2013-02-21 18:32:00,
2013-02-21 13:42:00,45.0,16.0,-100.00,NE,47,9.0,-999.0,30,-99.99,,,0.00,711.760010,,2013-02-21 18:42:00,
2013-02-21 13:52:00,47.0,16.0,-100.00,ENE,73,5.0,-999.0,28,-99.99,,,0.00,774.559998,,2013-02-21 18:52:00,
2013-02-21 14:02:00,47.0,16.0,-100.00,ENE,73,5.0,-999.0,28,-99.99,,,0.00,774.559998,,2013-02-21 19:02:00,
2013-02-21 14:12:00,48.0,15.0,-100.00,NE,51,7.0,-999.0,27,-99.99,,,-99.99,607.090027,,2013-02-21 19:12:00,
2013-02-21 14:21:00,48.0,15.0,-100.00,NE,52,5.0,-999.0,26,-99.99,,,0.00,474.500000,,2013-02-21 19:21:00,
2013-02-21 14:32:00,48.0,15.0,-100.00,NE,52,5.0,-999.0,26,-99.99,,,0.00,474.500000,,2013-02-21 19:32:00,
2013-02-21 14:42:00,48.0,16.0,-100.00,NNE,15,5.0,-999.0,27,-99.99,,,0.00,411.700012,,2013-02-21 19:42:00,
2013-02-21 14:52:00,49.0,16.0,-100.00,NE,48,6.0,-999.0,26,-99.99,,,0.00,516.369995,,2013-02-21 19:52:00,
2013-02-21 15:01:00,49.0,16.0,-100.00,NE,48,6.0,-999.0,26,-99.99,,,0.00,516.369995,,2013-02-21 20:01:00,
2013-02-21 15:11:00,49.0,15.0,-100.00,NE,34,5.0,-999.0,25,-99.99,,,0.00,446.589996,,2013-02-21 20:11:00,
2013-02-21 15:21:00,50.0,16.0,-100.00,NE,44,7.0,-999.0,25,-99.99,,,0.00,411.700012,,2013-02-21 20:21:00,
2013-02-21 15:32:00,50.0,16.0,-100.00,NE,44,7.0,-999.0,25,-99.99,,,0.00,411.700012,,2013-02-21 20:32:00,
2013-02-21 15:42:00,50.0,16.0,-100.00,ENE,58,7.0,-999.0,25,-99.99,,,0.00,334.940002,,2013-02-21 20:42:00,
2013-02-21 15:53:00,50.0,17.0,-100.00,NE,54,7.0,-999.0,26,-99.99,,,0.00,286.100006,,2013-02-21 20:53:00,
2013-02-21 16:02:00,50.0,17.0,-100.00,NE,54,7.0,-999.0,26,-99.99,,,0.00,286.100006,,2013-02-21 21:02:00,
2013-02-21 16:12:00,50.0,17.0,-100.00,NE,48,7.0,-999.0,26,-99.99,,,0.00,251.210007,,2013-02-21 21:12:00,
2013-02-21 16:22:00,50.0,18.0,-100.00,NE,55,7.0,-999.0,27,-99.99,,,0.00,188.410004,,2013-02-21 21:22:00,
2013-02-21 16:32:00,50.0,18.0,-100.00,NE,55,7.0,-999.0,27,-99.99,,,0.00,188.410004,,2013-02-21 21:32:00,
2013-02-21 16:42:00,50.0,18.0,-100.00,NE,42,8.0,-999.0,27,-99.99,,,0.00,153.520004,,2013-02-21 21:42:00,
2013-02-21 16:52:00,50.0,18.0,-100.00,NE,47,7.0,-999.0,27,-99.99,,,0.00,104.669998,,2013-02-21 21:52:00,
2013-02-21 17:00:00,50.0,19.0,-100.00,NE,47,6.0,-999.0,28,-99.99,,,0.00,76.760002,,2013-02-21 22:00:00,
2013-02-21 17:01:00,50.0,18.0,-100.00,NE,47,7.0,-999.0,27,-99.99,,,0.00,104.669998,,2013-02-21 22:01:00,
2013-02-21 17:11:00,50.0,19.0,-100.00,NE,48,7.0,-999.0,28,-99.99,,,0.00,104.669998,,2013-02-21 22:11:00,
2013-02-21 17:21:00,50.0,19.0,-100.00,NE,48,8.0,-999.0,28,-99.99,,,0.00,104.669998,,2013-02-21 22:21:00,
2013-02-21 17:32:00,50.0,19.0,-100.00,NE,48,8.0,-999.0,28,-99.99,,,0.00,104.669998,,2013-02-21 22:32:00,
2013-02-21 17:42:00,50.0,19.0,-100.00,NE,47,6.0,-999.0,28,-99.99,,,0.00,76.760002,,2013-02-21 22:42:00,
2013-02-21 17:52:00,50.0,19.0,-100.00,NE,47,6.0,-999.0,28,-99.99,,,0.00,76.760002,,2013-02-21 22:52:00,
2013-02-21 18:11:00,50.0,19.0,-100.00,NE,49,10.0,-999.0,29,-99.99,,,0.00,27.910000,,2013-02-21 23:11:00,
2013-02-21 18:21:00,50.0,19.0,-100.00,NE,53,9.0,-999.0,29,-99.99,,,0.00,13.960000,,2013-02-21 23:21:00,
2013-02-21 18:32:00,50.0,19.0,-100.00,NE,53,9.0,-999.0,29,-99.99,,,0.00,13.960000,,2013-02-21 23:32:00,
2013-02-21 18:42:00,50.0,19.0,-100.00,NE,54,9.0,-999.0,29,-99.99,,,0.00,6.980000,,2013-02-21 23:42:00,
2013-02-21 18:53:00,50.0,19.0,-100.00,ENE,57,9.0,-999.0,28,-99.99,,,0.00,0.000000,,2013-02-21 23:53:00,
2013-02-21 19:02:00,50.0,19.0,-100.00,ENE,57,9.0,-999.0,28,-99.99,,,0.00,0.000000,,2013-02-22 00:02:00,
2013-02-21 19:11:00,49.0,18.0,-100.00,NE,53,7.0,-999.0,28,-99.99,,,0.00,0.000000,,2013-02-22 00:11:00,
2013-02-21 19:22:00,49.0,18.0,-100.00,NE,50,7.0,-999.0,28,-99.99,,,0.00,0.000000,,2013-02-22 00:22:00,
2013-02-21 19:32:00,49.0,18.0,-100.00,NE,50,7.0,-999.0,28,-99.99,,,0.00,0.000000,,2013-02-22 00:32:00,
2013-02-21 19:42:00,49.0,19.0,-100.00,NE,50,7.0,-999.0,30,-99.99,,,0.00,0.000000,,2013-02-22 00:42:00,
2013-02-21 19:52:00,49.0,20.0,-100.00,NE,44,5.0,-999.0,32,-99.99,,,0.00,0.000000,,2013-02-22 00:52:00,
2013-02-21 20:01:00,49.0,20.0,-100.00,NE,44,5.0,-999.0,32,-99.99,,,0.00,0.000000,,2013-02-22 01:01:00,
2013-02-21 20:11:00,49.0,21.0,-100.00,NNE,23,2.0,-999.0,33,-99.99,,,0.00,0.000000,,2013-02-22 01:11:00,
2013-02-21 20:22:00,48.0,25.0,-100.00,NE,48,4.0,-999.0,41,-99.99,,,0.00,0.000000,,2013-02-22 01:22:00,
2013-02-21 20:32:00,48.0,25.0,-100.00,NE,48,4.0,-999.0,41,-99.99,,,0.00,0.000000,,2013-02-22 01:32:00,
2013-02-21 20:42:00,46.0,32.0,-100.00,ENE,68,1.0,-999.0,58,-99.99,,,0.00,0.000000,,2013-02-22 01:42:00,
2013-02-21 20:52:00,45.0,35.0,-100.00,NNE,22,3.0,-999.0,66,-99.99,,,-99.99,0.000000,,2013-02-22 01:52:00,
2013-02-21 21:02:00,45.0,35.0,-100.00,NNE,22,3.0,-999.0,66,-99.99,,,-99.99,0.000000,,2013-02-22 02:02:00,
2013-02-21 21:11:00,44.0,43.0,-100.00,ENE,74,4.0,-999.0,95,-99.99,,,0.00,0.000000,,2013-02-22 02:11:00,
2013-02-21 21:22:00,43.0,43.0,-100.00,ENE,60,5.0,-999.0,100,-99.99,,,0.00,0.000000,,2013-02-22 02:22:00,
2013-02-21 21:32:00,43.0,43.0,-100.00,ENE,60,5.0,-999.0,100,-99.99,,,0.00,0.000000,,2013-02-22 02:32:00,
2013-02-21 21:42:00,43.0,43.0,-100.00,ENE,62,5.0,-999.0,100,-99.99,,,0.00,0.000000,,2013-02-22 02:42:00,
2013-02-21 21:52:00,42.0,42.0,-100.00,ENE,63,5.0,-999.0,100,-99.99,,,0.00,0.000000,,2013-02-22 02:52:00,
2013-02-21 22:02:00,42.0,42.0,-100.00,ENE,63,5.0,-999.0,100,-99.99,,,0.00,0.000000,,2013-02-22 03:02:00,
2013-02-21 22:11:00,42.0,42.0,-100.00,NE,56,5.0,-999.0,100,-99.99,,,0.00,0.000000,,2013-02-22 03:11:00,
2013-02-21 22:22:00,41.0,41.0,-100.00,NE,53,2.0,-999.0,100,-99.99,,,0.00,0.000000,,2013-02-22 03:22:00,
2013-02-21 22:32:00,41.0,41.0,-100.00,NE,53,2.0,-999.0,100,-99.99,,,0.00,0.000000,,2013-02-22 03:32:00,
2013-02-21 22:42:00,41.0,41.0,-100.00,ESE,113,2.0,-999.0,100,-99.99,,,0.00,0.000000,,2013-02-22 03:42:00,
2013-02-21 22:52:00,40.0,40.0,-100.00,East,89,2.0,-999.0,100,-99.99,,,0.00,0.000000,,2013-02-22 03:52:00,
2013-02-21 23:02:00,40.0,40.0,-100.00,East,89,2.0,-999.0,100,-99.99,,,0.00,0.000000,,2013-02-22 04:02:00,
2013-02-21 23:11:00,40.0,40.0,-100.00,North,357,1.0,-999.0,100,-99.99,,,0.00,0.000000,,2013-02-22 04:11:00,
2013-02-21 23:21:00,40.0,40.0,-100.00,WNW,298,1.0,-999.0,100,-99.99,,,0.00,0.000000,,2013-02-22 04:21:00,
2013-02-21 23:32:00,40.0,40.0,-100.00,WNW,298,1.0,-999.0,100,-99.99,,,0.00,0.000000,,2013-02-22 04:32:00,
2013-02-21 23:42:00,40.0,40.0,-100.00,NNE,31,2.0,-999.0,100,-99.99,,,0.00,0.000000,,2013-02-22 04:42:00,
2013-02-21 23:52:00,40.0,40.0,-100.00,NE,44,3.0,-999.0,100,-99.99,,,0.00,0.000000,,2013-02-22 04:52:00,